createdAt,value
2017-08-18T00:00:53.410Z,956.43
2017-08-18T00:01:53.408Z,956.45
2017-08-18T00:02:53.428Z,956.41
2017-08-18T00:03:53.515Z,956.38
2017-08-18T00:04:53.453Z,956.35
2017-08-18T00:05:53.534Z,956.34
2017-08-18T00:06:53.400Z,956.3
2017-08-18T00:07:53.402Z,956.28
2017-08-18T00:08:53.397Z,956.32
2017-08-18T00:09:53.399Z,956.27
2017-08-18T00:10:53.395Z,956.27
2017-08-18T00:11:53.392Z,956.28
2017-08-18T00:12:53.393Z,956.28
2017-08-18T00:13:53.390Z,956.28
2017-08-18T00:14:53.388Z,956.27
2017-08-18T00:15:53.403Z,956.24
2017-08-18T00:16:53.387Z,956.24
2017-08-18T00:17:53.384Z,956.23
2017-08-18T00:18:53.383Z,956.24
2017-08-18T00:19:53.388Z,956.28
2017-08-18T00:20:53.380Z,956.22
2017-08-18T00:21:53.396Z,956.26
2017-08-18T00:22:53.377Z,956.23
2017-08-18T00:23:53.376Z,956.27
2017-08-18T00:24:53.375Z,956.25
2017-08-18T00:25:53.374Z,956.28
2017-08-18T00:26:53.398Z,956.25
2017-08-18T00:27:53.370Z,956.26
2017-08-18T00:28:53.380Z,956.23
2017-08-18T00:29:53.372Z,956.22
2017-08-18T00:30:53.365Z,956.22
2017-08-18T00:31:53.384Z,956.19
2017-08-18T00:32:53.395Z,956.18
2017-08-18T00:33:53.360Z,956.18
2017-08-18T00:34:53.362Z,956.16
2017-08-18T00:35:53.358Z,956.15
2017-08-18T00:36:53.595Z,956.14
2017-08-18T00:37:53.509Z,956.16
2017-08-18T00:38:53.352Z,956.16
2017-08-18T00:39:53.353Z,956.15
2017-08-18T00:40:53.351Z,956.18
2017-08-18T00:41:53.473Z,956.15
2017-08-18T00:42:53.486Z,956.18
2017-08-18T00:43:53.345Z,956.17
2017-08-18T00:44:53.345Z,956.2
2017-08-18T00:45:53.343Z,956.18
2017-08-18T00:46:53.605Z,956.21
2017-08-18T00:47:53.339Z,956.16
2017-08-18T00:48:53.337Z,956.2
2017-08-18T00:49:53.395Z,956.17
2017-08-18T00:50:53.335Z,956.15
2017-08-18T00:51:53.355Z,956.12
2017-08-18T00:52:53.335Z,956.13
2017-08-18T00:53:53.330Z,956.11
2017-08-18T00:54:53.347Z,956.14
2017-08-18T00:55:53.489Z,956.11
2017-08-18T00:56:53.343Z,956.12
2017-08-18T00:57:53.324Z,956.07
2017-08-18T00:58:53.322Z,956.08
2017-08-18T00:59:53.319Z,956.07
2017-08-18T01:00:53.443Z,956.1
2017-08-18T01:01:53.317Z,956.09
2017-08-18T01:02:53.317Z,956.08
2017-08-18T01:03:53.312Z,956.06
2017-08-18T01:04:53.312Z,956.04
2017-08-18T01:05:53.453Z,956.04
2017-08-18T01:06:53.430Z,956.06
2017-08-18T01:07:53.308Z,956.05
2017-08-18T01:08:53.304Z,956.09
2017-08-18T01:09:53.346Z,956.05
2017-08-18T01:10:53.338Z,956.05
2017-08-18T01:11:53.302Z,956.1
2017-08-18T01:12:53.297Z,956.06
2017-08-18T01:13:53.296Z,956.06
2017-08-18T01:14:53.453Z,956.04
2017-08-18T01:15:53.425Z,956.02
2017-08-18T01:16:53.289Z,955.99
2017-08-18T01:17:53.287Z,955.99
2017-08-18T01:18:53.285Z,955.96
2017-08-18T01:19:53.283Z,955.99
2017-08-18T01:20:53.284Z,955.98
2017-08-18T01:21:53.279Z,956.01
2017-08-18T01:22:53.278Z,955.96
2017-08-18T01:23:53.277Z,955.98
2017-08-18T01:24:53.274Z,955.99
2017-08-18T01:25:53.386Z,955.94
2017-08-18T01:26:53.390Z,955.97
2017-08-18T01:27:53.267Z,955.96
2017-08-18T01:28:53.272Z,955.98
2017-08-18T01:29:53.262Z,955.96
2017-08-18T01:30:53.262Z,955.95
2017-08-18T01:31:53.375Z,955.92
2017-08-18T01:32:53.265Z,955.9
2017-08-18T01:33:53.260Z,955.9
2017-08-18T01:34:53.255Z,955.9
2017-08-18T01:35:53.264Z,955.9
2017-08-18T01:36:53.250Z,955.88
2017-08-18T01:37:53.249Z,955.91
2017-08-18T01:38:53.246Z,955.89
2017-08-18T01:39:53.242Z,955.88
2017-08-18T01:40:53.411Z,955.87
2017-08-18T01:41:53.241Z,955.88
2017-08-18T01:42:53.239Z,955.87
2017-08-18T01:43:53.236Z,955.85
2017-08-18T01:44:53.390Z,955.81
2017-08-18T01:45:53.232Z,955.8
2017-08-18T01:46:53.230Z,955.79
2017-08-18T01:47:53.227Z,955.79
2017-08-18T01:48:53.225Z,955.76
2017-08-18T01:49:53.334Z,955.72
2017-08-18T01:50:53.220Z,955.71
2017-08-18T01:51:53.218Z,955.73
2017-08-18T01:52:53.220Z,955.71
2017-08-18T01:53:53.221Z,955.8
2017-08-18T01:54:53.232Z,955.75
2017-08-18T01:55:53.332Z,955.77
2017-08-18T01:56:53.208Z,955.79
2017-08-18T01:57:53.206Z,955.78
2017-08-18T01:58:53.223Z,955.77
2017-08-18T01:59:53.225Z,955.8
2017-08-18T02:00:53.340Z,955.77
2017-08-18T02:01:53.196Z,955.76
2017-08-18T02:02:53.193Z,955.72
2017-08-18T02:03:53.192Z,955.74
2017-08-18T02:04:53.190Z,955.71
2017-08-18T02:05:53.188Z,955.66
2017-08-18T02:06:53.342Z,955.69
2017-08-18T02:07:53.281Z,955.67
2017-08-18T02:08:53.179Z,955.69
2017-08-18T02:09:53.178Z,955.67
2017-08-18T02:10:53.205Z,955.69
2017-08-18T02:11:53.194Z,955.69
2017-08-18T02:12:53.190Z,955.67
2017-08-18T02:13:53.168Z,955.72
2017-08-18T02:14:53.167Z,955.64
2017-08-18T02:15:53.166Z,955.71
2017-08-18T02:16:53.303Z,955.63
2017-08-18T02:17:53.161Z,955.65
2017-08-18T02:18:53.219Z,955.63
2017-08-18T02:19:53.248Z,955.62
2017-08-18T02:20:53.262Z,955.62
2017-08-18T02:21:53.153Z,955.62
2017-08-18T02:22:53.146Z,955.63
2017-08-18T02:23:53.143Z,955.63
2017-08-18T02:24:53.159Z,955.62
2017-08-18T02:25:53.140Z,955.63
2017-08-18T02:26:53.137Z,955.6
2017-08-18T02:27:53.133Z,955.64
2017-08-18T02:28:53.131Z,955.6
2017-08-18T02:29:53.128Z,955.61
2017-08-18T02:30:53.139Z,955.62
2017-08-18T02:31:53.126Z,955.56
2017-08-18T02:32:53.120Z,955.55
2017-08-18T02:33:53.119Z,955.56
2017-08-18T02:34:53.119Z,955.53
2017-08-18T02:35:53.231Z,955.56
2017-08-18T02:36:53.110Z,955.55
2017-08-18T02:37:53.107Z,955.54
2017-08-18T02:38:53.103Z,955.56
2017-08-18T02:39:53.101Z,955.57
2017-08-18T02:40:53.108Z,955.56
2017-08-18T02:41:53.233Z,955.55
2017-08-18T02:42:53.092Z,955.56
2017-08-18T02:43:53.090Z,955.6
2017-08-18T02:44:53.088Z,955.6
2017-08-18T02:45:53.219Z,955.61
2017-08-18T02:46:53.232Z,955.61
2017-08-18T02:47:53.077Z,955.62
2017-08-18T02:48:53.075Z,955.63
2017-08-18T02:49:53.071Z,955.63
2017-08-18T02:50:53.248Z,955.68
2017-08-18T02:51:53.068Z,955.68
2017-08-18T02:52:53.063Z,955.7
2017-08-18T02:53:53.069Z,955.66
2017-08-18T02:54:53.188Z,955.67
2017-08-18T02:55:53.161Z,955.64
2017-08-18T02:56:53.051Z,955.62
2017-08-18T02:57:53.047Z,955.66
2017-08-18T02:58:53.046Z,955.63
2017-08-18T02:59:53.042Z,955.65
2017-08-18T03:00:53.039Z,955.65
2017-08-18T03:01:53.034Z,955.62
2017-08-18T03:02:53.033Z,955.65
2017-08-18T03:03:53.028Z,955.66
2017-08-18T03:04:53.025Z,955.63
2017-08-18T03:05:53.022Z,955.65
2017-08-18T03:06:53.020Z,955.65
2017-08-18T03:07:53.028Z,955.68
2017-08-18T03:08:53.012Z,955.68
2017-08-18T03:09:53.010Z,955.73
2017-08-18T03:10:53.007Z,955.72
2017-08-18T03:11:53.004Z,955.74
2017-08-18T03:12:53.001Z,955.7
2017-08-18T03:13:52.997Z,955.74
2017-08-18T03:14:52.993Z,955.74
2017-08-18T03:15:53.007Z,955.76
2017-08-18T03:16:53.007Z,955.73
2017-08-18T03:17:52.985Z,955.74
2017-08-18T03:18:52.980Z,955.72
2017-08-18T03:19:52.998Z,955.73
2017-08-18T03:20:52.986Z,955.75
2017-08-18T03:21:52.970Z,955.79
2017-08-18T03:22:53.316Z,955.78
2017-08-18T03:23:52.963Z,955.82
2017-08-18T03:24:52.961Z,955.85
2017-08-18T03:25:52.955Z,955.81
2017-08-18T03:26:52.959Z,955.85
2017-08-18T03:27:52.950Z,955.81
2017-08-18T03:28:52.946Z,955.79
2017-08-18T03:29:52.941Z,955.8
2017-08-18T03:30:52.940Z,955.82
2017-08-18T03:31:52.936Z,955.8
2017-08-18T03:32:52.931Z,955.81
2017-08-18T03:33:52.929Z,955.78
2017-08-18T03:34:52.923Z,955.82
2017-08-18T03:35:52.921Z,955.84
2017-08-18T03:36:52.917Z,955.87
2017-08-18T03:37:52.933Z,955.89
2017-08-18T03:38:52.913Z,955.88
2017-08-18T03:39:52.926Z,955.9
2017-08-18T03:40:52.902Z,955.89
2017-08-18T03:41:52.900Z,955.87
2017-08-18T03:42:52.895Z,955.9
2017-08-18T03:43:52.892Z,955.9
2017-08-18T03:44:52.890Z,955.91
2017-08-18T03:45:52.885Z,955.93
2017-08-18T03:46:52.881Z,955.92
2017-08-18T03:47:52.879Z,955.91
2017-08-18T03:48:52.874Z,955.87
2017-08-18T03:49:52.873Z,955.88
2017-08-18T03:50:52.868Z,955.9
2017-08-18T03:51:52.863Z,955.91
2017-08-18T03:52:52.860Z,955.91
2017-08-18T03:53:52.856Z,955.9
2017-08-18T03:54:52.854Z,955.9
2017-08-18T03:55:52.850Z,955.87
2017-08-18T03:56:52.846Z,955.87
2017-08-18T03:57:52.852Z,955.88
2017-08-18T03:58:52.837Z,955.84
2017-08-18T03:59:52.838Z,955.83
2017-08-18T04:00:52.831Z,955.83
2017-08-18T04:01:52.827Z,955.82
2017-08-18T04:02:52.823Z,955.85
2017-08-18T04:03:52.819Z,955.8
2017-08-18T04:04:52.815Z,955.81
2017-08-18T04:05:52.810Z,955.8
2017-08-18T04:06:52.808Z,955.82
2017-08-18T04:07:52.826Z,955.8
2017-08-18T04:08:52.802Z,955.82
2017-08-18T04:09:52.797Z,955.8
2017-08-18T04:10:52.793Z,955.78
2017-08-18T04:11:52.791Z,955.83
2017-08-18T04:12:52.792Z,955.79
2017-08-18T04:13:52.781Z,955.79
2017-08-18T04:14:52.778Z,955.8
2017-08-18T04:15:52.774Z,955.78
2017-08-18T04:16:52.770Z,955.74
2017-08-18T04:17:52.766Z,955.76
2017-08-18T04:18:52.763Z,955.77
2017-08-18T04:19:52.760Z,955.75
2017-08-18T04:20:52.755Z,955.77
2017-08-18T04:21:52.753Z,955.75
2017-08-18T04:22:52.749Z,955.74
2017-08-18T04:23:52.766Z,955.73
2017-08-18T04:24:52.739Z,955.71
2017-08-18T04:25:52.738Z,955.74
2017-08-18T04:26:52.733Z,955.71
2017-08-18T04:27:52.729Z,955.69
2017-08-18T04:28:52.726Z,955.63
2017-08-18T04:29:52.721Z,955.63
2017-08-18T04:30:52.718Z,955.68
2017-08-18T04:31:52.714Z,955.67
2017-08-18T04:32:52.713Z,955.64
2017-08-18T04:33:52.707Z,955.65
2017-08-18T04:34:52.703Z,955.65
2017-08-18T04:35:52.699Z,955.63
2017-08-18T04:36:52.695Z,955.66
2017-08-18T04:37:52.697Z,955.67
2017-08-18T04:38:52.688Z,955.65
2017-08-18T04:39:52.685Z,955.62
2017-08-18T04:40:52.682Z,955.66
2017-08-18T04:41:52.678Z,955.58
2017-08-18T04:42:52.674Z,955.62
2017-08-18T04:43:52.672Z,955.59
2017-08-18T04:44:52.689Z,955.64
2017-08-18T04:45:52.665Z,955.65
2017-08-18T04:46:52.662Z,955.64
2017-08-18T04:47:52.657Z,955.64
2017-08-18T04:48:52.655Z,955.65
2017-08-18T04:49:52.650Z,955.69
2017-08-18T04:50:52.648Z,955.69
2017-08-18T04:51:52.643Z,955.7
2017-08-18T04:52:52.641Z,955.66
2017-08-18T04:53:52.637Z,955.7
2017-08-18T04:54:52.633Z,955.69
2017-08-18T04:55:52.631Z,955.71
2017-08-18T04:56:52.626Z,955.73
2017-08-18T04:57:52.624Z,955.7
2017-08-18T04:58:52.621Z,955.67
2017-08-18T04:59:52.620Z,955.64
2017-08-18T05:00:52.613Z,955.68
2017-08-18T05:01:52.622Z,955.69
2017-08-18T05:02:52.607Z,955.65
2017-08-18T05:03:52.605Z,955.65
2017-08-18T05:04:52.610Z,955.67
2017-08-18T05:05:52.598Z,955.64
2017-08-18T05:06:52.595Z,955.63
2017-08-18T05:07:52.591Z,955.59
2017-08-18T05:08:52.589Z,955.56
2017-08-18T05:09:52.586Z,955.53
2017-08-18T05:10:52.583Z,955.53
2017-08-18T05:11:52.579Z,955.48
2017-08-18T05:12:52.577Z,955.5
2017-08-18T05:13:52.574Z,955.49
2017-08-18T05:14:52.571Z,955.52
2017-08-18T05:15:52.602Z,955.5
2017-08-18T05:16:52.564Z,955.51
2017-08-18T05:17:52.570Z,955.48
2017-08-18T05:18:52.556Z,955.48
2017-08-18T05:19:52.554Z,955.52
2017-08-18T05:20:52.553Z,955.51
2017-08-18T05:21:52.554Z,955.45
2017-08-18T05:22:52.545Z,955.5
2017-08-18T05:23:52.543Z,955.5
2017-08-18T05:24:52.540Z,955.5
2017-08-18T05:25:52.538Z,955.49
2017-08-18T05:26:52.535Z,955.42
2017-08-18T05:27:52.531Z,955.45
2017-08-18T05:28:52.528Z,955.45
2017-08-18T05:29:52.524Z,955.4
2017-08-18T05:30:52.522Z,955.41
2017-08-18T05:31:52.520Z,955.43
2017-08-18T05:32:52.517Z,955.4
2017-08-18T05:33:52.513Z,955.42
2017-08-18T05:34:52.512Z,955.4
2017-08-18T05:35:52.512Z,955.39
2017-08-18T05:36:52.506Z,955.4
2017-08-18T05:37:52.502Z,955.35
2017-08-18T05:38:52.498Z,955.37
2017-08-18T05:39:52.496Z,955.41
2017-08-18T05:40:52.493Z,955.38
2017-08-18T05:41:52.491Z,955.39
2017-08-18T05:42:52.487Z,955.37
2017-08-18T05:43:52.487Z,955.39
2017-08-18T05:44:52.480Z,955.38
2017-08-18T05:45:52.482Z,955.35
2017-08-18T05:46:52.475Z,955.37
2017-08-18T05:47:52.473Z,955.37
2017-08-18T05:48:52.470Z,955.32
2017-08-18T05:49:52.470Z,955.29
2017-08-18T05:50:52.464Z,955.28
2017-08-18T05:51:52.460Z,955.28
2017-08-18T05:52:52.458Z,955.29
2017-08-18T05:53:52.455Z,955.26
2017-08-18T05:54:52.453Z,955.21
2017-08-18T05:55:52.450Z,955.23
2017-08-18T05:56:52.448Z,955.17
2017-08-18T05:57:52.448Z,955.14
2017-08-18T05:58:52.443Z,955.19
2017-08-18T05:59:52.453Z,955.12
2017-08-18T06:00:52.435Z,955.13
2017-08-18T06:01:52.434Z,955.15
2017-08-18T06:02:52.430Z,955.17
2017-08-18T06:03:52.428Z,955.13
2017-08-18T06:04:52.427Z,955.17
2017-08-18T06:05:52.422Z,955.11
2017-08-18T06:06:52.419Z,955.1
2017-08-18T06:07:52.416Z,955.09
2017-08-18T06:08:52.414Z,955.08
2017-08-18T06:09:52.432Z,955.06
2017-08-18T06:10:52.408Z,955.06
2017-08-18T06:11:52.409Z,955.1
2017-08-18T06:12:52.404Z,955.06
2017-08-18T06:13:52.402Z,955.09
2017-08-18T06:14:52.398Z,955.1
2017-08-18T06:15:52.396Z,955.17
2017-08-18T06:16:52.396Z,955.15
2017-08-18T06:17:52.392Z,955.13
2017-08-18T06:18:52.389Z,955.16
2017-08-18T06:19:52.388Z,955.19
2017-08-18T06:20:52.388Z,955.16
2017-08-18T06:21:52.384Z,955.17
2017-08-18T06:22:52.384Z,955.21
2017-08-18T06:23:52.379Z,955.15
2017-08-18T06:24:52.377Z,955.18
2017-08-18T06:25:52.375Z,955.13
2017-08-18T06:26:52.372Z,955.2
2017-08-18T06:27:52.370Z,955.18
2017-08-18T06:28:52.367Z,955.2
2017-08-18T06:29:52.366Z,955.18
2017-08-18T06:30:52.363Z,955.14
2017-08-18T06:31:52.360Z,955.22
2017-08-18T06:32:52.360Z,955.18
2017-08-18T06:33:52.360Z,955.28
2017-08-18T06:34:52.367Z,955.25
2017-08-18T06:35:52.353Z,955.26
2017-08-18T06:36:52.352Z,955.29
2017-08-18T06:37:52.350Z,955.26
2017-08-18T06:38:52.363Z,955.23
2017-08-18T06:39:52.364Z,955.22
2017-08-18T06:40:52.343Z,955.2
2017-08-18T06:41:52.342Z,955.25
2017-08-18T06:42:52.339Z,955.3
2017-08-18T06:43:52.339Z,955.28
2017-08-18T06:44:52.336Z,955.32
2017-08-18T06:45:52.336Z,955.29
2017-08-18T06:46:52.333Z,955.28
2017-08-18T06:47:52.332Z,955.32
2017-08-18T06:48:52.331Z,955.34
2017-08-18T06:49:52.329Z,955.34
2017-08-18T06:50:52.325Z,955.31
2017-08-18T06:51:52.326Z,955.37
2017-08-18T06:52:52.324Z,955.31
2017-08-18T06:53:52.322Z,955.28
2017-08-18T06:54:52.322Z,955.29
2017-08-18T06:55:52.321Z,955.28
2017-08-18T06:56:52.321Z,955.34
2017-08-18T06:57:52.322Z,955.39
2017-08-18T06:58:52.320Z,955.38
2017-08-18T06:59:52.320Z,955.29
2017-08-18T07:00:52.322Z,955.22
2017-08-18T07:01:52.323Z,955.28
2017-08-18T07:02:52.324Z,955.5
2017-08-18T07:03:52.326Z,955.39
2017-08-18T07:04:52.325Z,955.59
2017-08-18T07:05:52.325Z,955.84
2017-08-18T07:06:52.328Z,955.87
2017-08-18T07:07:52.330Z,955.84
2017-08-18T07:08:52.332Z,955.55
2017-08-18T07:09:52.333Z,955.6
2017-08-18T07:10:52.334Z,955.32
2017-08-18T07:11:52.340Z,955.84
2017-08-18T07:12:52.356Z,955.42
2017-08-18T07:13:52.343Z,955.35
2017-08-18T07:14:52.347Z,955.68
2017-08-18T07:15:52.365Z,955.58
2017-08-18T07:16:52.351Z,955.37
2017-08-18T07:17:52.355Z,955.54
2017-08-18T07:18:52.359Z,955.51
2017-08-18T07:19:52.360Z,955.54
2017-08-18T07:20:52.364Z,955.55
2017-08-18T07:21:52.369Z,955.67
2017-08-18T07:22:52.372Z,955.87
2017-08-18T07:23:52.377Z,955.95
2017-08-18T07:24:52.382Z,956.23
2017-08-18T07:25:52.387Z,956.35
2017-08-18T07:26:52.390Z,956.59
2017-08-18T07:27:52.397Z,956.75
2017-08-18T07:28:52.403Z,956.84
2017-08-18T07:29:52.409Z,957
2017-08-18T07:30:52.417Z,957.11
2017-08-18T07:31:52.428Z,957.06
2017-08-18T07:32:52.426Z,956.83
2017-08-18T07:33:52.433Z,955.9
2017-08-18T07:34:52.439Z,955.11
2017-08-18T07:35:52.446Z,955.04
2017-08-18T07:36:52.453Z,955.04
2017-08-18T07:37:52.458Z,955.06
2017-08-18T07:38:52.464Z,955.06
2017-08-18T07:39:52.471Z,955.03
2017-08-18T07:40:52.479Z,955.09
2017-08-18T07:41:52.485Z,955.07
2017-08-18T07:42:52.495Z,955.04
2017-08-18T07:43:52.498Z,955.04
2017-08-18T07:44:52.505Z,955.05
2017-08-18T07:45:52.510Z,955
2017-08-18T07:46:52.516Z,954.99
2017-08-18T07:47:52.523Z,954.95
2017-08-18T07:48:52.529Z,954.96
2017-08-18T07:49:52.534Z,954.93
2017-08-18T07:50:52.562Z,954.95
2017-08-18T07:51:52.547Z,955.01
2017-08-18T07:52:52.551Z,955.01
2017-08-18T07:53:52.558Z,954.97
2017-08-18T07:54:52.566Z,955.02
2017-08-18T07:55:52.569Z,954.91
2017-08-18T07:56:52.575Z,954.92
2017-08-18T07:57:52.581Z,954.86
2017-08-18T07:58:52.586Z,954.85
2017-08-18T07:59:52.591Z,954.86
2017-08-18T08:00:52.596Z,954.88
2017-08-18T08:01:52.601Z,954.9
2017-08-18T08:02:52.605Z,954.92
2017-08-18T08:03:52.611Z,954.96
2017-08-18T08:04:52.616Z,954.99
2017-08-18T08:05:52.621Z,955
2017-08-18T08:06:52.625Z,955.05
2017-08-18T08:07:52.631Z,955.02
2017-08-18T08:08:52.634Z,955.01
2017-08-18T08:09:52.640Z,955.02
2017-08-18T08:10:52.668Z,954.99
2017-08-18T08:11:52.651Z,955.01
2017-08-18T08:12:52.652Z,955.01
2017-08-18T08:13:52.665Z,954.94
2017-08-18T08:14:52.661Z,955.02
2017-08-18T08:15:52.666Z,954.93
2017-08-18T08:16:52.671Z,954.93
2017-08-18T08:17:52.683Z,955.02
2017-08-18T08:18:52.683Z,955.06
2017-08-18T08:19:52.683Z,955.01
2017-08-18T08:20:52.701Z,954.99
2017-08-18T08:21:52.698Z,954.98
2017-08-18T08:22:52.696Z,955.01
2017-08-18T08:23:52.701Z,954.94
2017-08-18T08:24:52.706Z,954.95
2017-08-18T08:25:52.710Z,954.98
2017-08-18T08:26:52.713Z,954.97
2017-08-18T08:27:52.719Z,954.97
2017-08-18T08:28:52.721Z,955
2017-08-18T08:29:52.727Z,954.97
2017-08-18T08:30:52.732Z,954.97
2017-08-18T08:31:52.746Z,954.94
2017-08-18T08:32:52.740Z,954.91
2017-08-18T08:33:52.745Z,954.91
2017-08-18T08:34:52.749Z,954.94
2017-08-18T08:35:52.752Z,954.92
2017-08-18T08:36:52.756Z,954.89
2017-08-18T08:37:52.761Z,954.87
2017-08-18T08:38:52.765Z,954.86
2017-08-18T08:39:52.773Z,954.89
2017-08-18T08:40:52.774Z,954.88
2017-08-18T08:41:52.779Z,954.89
2017-08-18T08:42:52.784Z,954.88
2017-08-18T08:43:52.787Z,954.9
2017-08-18T08:44:52.792Z,954.92
2017-08-18T08:45:52.833Z,954.9
2017-08-18T08:46:52.801Z,954.88
2017-08-18T08:47:52.804Z,954.93
2017-08-18T08:48:52.824Z,954.92
2017-08-18T08:49:52.813Z,954.91
2017-08-18T08:50:52.816Z,954.93
2017-08-18T08:51:52.822Z,954.88
2017-08-18T08:52:52.825Z,954.96
2017-08-18T08:53:52.831Z,954.97
2017-08-18T08:54:52.833Z,954.99
2017-08-18T08:55:52.837Z,954.98
2017-08-18T08:56:52.842Z,954.98
2017-08-18T08:57:52.845Z,954.99
2017-08-18T08:58:52.848Z,955
2017-08-18T08:59:52.869Z,955.01
2017-08-18T09:00:52.856Z,955.03
2017-08-18T09:01:52.861Z,955
2017-08-18T09:02:52.865Z,954.89
2017-08-18T09:03:52.869Z,954.99
2017-08-18T09:04:52.874Z,954.95
2017-08-18T09:05:52.878Z,955
2017-08-18T09:06:52.886Z,954.96
2017-08-18T09:07:52.886Z,954.96
2017-08-18T09:08:52.890Z,954.91
2017-08-18T09:09:52.893Z,954.91
2017-08-18T09:10:52.896Z,954.93
2017-08-18T09:11:52.900Z,954.86
2017-08-18T09:12:52.905Z,954.88
2017-08-18T09:13:52.909Z,954.87
2017-08-18T09:14:52.912Z,954.9
2017-08-18T09:15:52.917Z,954.88
2017-08-18T09:16:52.920Z,954.89
2017-08-18T09:17:52.925Z,954.86
2017-08-18T09:18:52.930Z,954.91
2017-08-18T09:19:52.934Z,954.87
2017-08-18T09:20:52.937Z,954.86
2017-08-18T09:21:52.941Z,954.86
2017-08-18T09:22:52.944Z,954.86
2017-08-18T09:23:52.948Z,954.88
2017-08-18T09:24:52.952Z,954.81
2017-08-18T09:25:52.957Z,954.79
2017-08-18T09:26:52.962Z,954.76
2017-08-18T09:27:52.969Z,954.73
2017-08-18T09:28:52.979Z,954.77
2017-08-18T09:29:52.976Z,954.78
2017-08-18T09:30:52.978Z,954.77
2017-08-18T09:31:52.983Z,954.77
2017-08-18T09:32:52.989Z,954.67
2017-08-18T09:33:52.992Z,954.75
2017-08-18T09:34:52.995Z,954.74
2017-08-18T09:35:53.010Z,954.76
2017-08-18T09:36:53.005Z,954.75
2017-08-18T09:37:53.019Z,954.79
2017-08-18T09:38:53.029Z,954.79
2017-08-18T09:39:53.016Z,954.71
2017-08-18T09:40:53.019Z,954.75
2017-08-18T09:41:53.024Z,954.74
2017-08-18T09:42:53.029Z,954.74
2017-08-18T09:43:53.033Z,954.64
2017-08-18T09:44:53.038Z,954.74
2017-08-18T09:45:53.039Z,954.79
2017-08-18T09:46:53.045Z,954.74
2017-08-18T09:47:53.049Z,954.7
2017-08-18T09:48:53.053Z,954.64
2017-08-18T09:49:53.056Z,954.61
2017-08-18T09:50:53.066Z,954.54
2017-08-18T09:51:53.074Z,954.49
2017-08-18T09:52:53.069Z,954.54
2017-08-18T09:53:53.072Z,954.55
2017-08-18T09:54:53.077Z,954.55
2017-08-18T09:55:53.079Z,954.46
2017-08-18T09:56:53.084Z,954.45
2017-08-18T09:57:53.088Z,954.36
2017-08-18T09:58:53.092Z,954.3
2017-08-18T09:59:53.097Z,954.36
2017-08-18T10:00:53.104Z,954.26
2017-08-18T10:01:53.107Z,954.28
2017-08-18T10:02:53.109Z,954.31
2017-08-18T10:03:53.127Z,954.34
2017-08-18T10:04:53.117Z,954.34
2017-08-18T10:05:53.121Z,954.36
2017-08-18T10:06:53.125Z,954.36
2017-08-18T10:07:53.127Z,954.48
2017-08-18T10:08:53.131Z,954.38
2017-08-18T10:09:53.157Z,954.33
2017-08-18T10:10:53.141Z,954.31
2017-08-18T10:11:53.149Z,954.27
2017-08-18T10:12:53.149Z,954.29
2017-08-18T10:13:53.151Z,954.26
2017-08-18T10:14:53.156Z,954.27
2017-08-18T10:15:53.160Z,954.25
2017-08-18T10:16:53.164Z,954.29
2017-08-18T10:17:53.168Z,954.32
2017-08-18T10:18:53.185Z,954.29
2017-08-18T10:19:53.175Z,954.25
2017-08-18T10:20:53.181Z,954.2
2017-08-18T10:21:53.401Z,954.26
2017-08-18T10:22:53.185Z,954.27
2017-08-18T10:23:53.200Z,954.31
2017-08-18T10:24:53.192Z,954.27
2017-08-18T10:25:53.209Z,954.23
2017-08-18T10:26:53.197Z,954.21
2017-08-18T10:27:53.203Z,954.16
2017-08-18T10:28:53.205Z,954.18
2017-08-18T10:29:53.208Z,954.2
2017-08-18T10:30:53.212Z,954.21
2017-08-18T10:31:53.214Z,954.21
2017-08-18T10:32:53.219Z,954.18
2017-08-18T10:33:53.222Z,954.19
2017-08-18T10:34:53.231Z,954.2
2017-08-18T10:35:53.230Z,954.16
2017-08-18T10:36:53.232Z,954.23
2017-08-18T10:37:53.236Z,954.23
2017-08-18T10:38:53.239Z,954.19
2017-08-18T10:39:53.244Z,954.21
2017-08-18T10:40:53.246Z,954.21
2017-08-18T10:41:53.250Z,954.16
2017-08-18T10:42:53.252Z,954.18
2017-08-18T10:43:53.257Z,954.12
2017-08-18T10:44:53.258Z,954.14
2017-08-18T10:45:53.263Z,954.1
2017-08-18T10:46:53.282Z,954.07
2017-08-18T10:47:53.268Z,954.1
2017-08-18T10:48:53.272Z,954.04
2017-08-18T10:49:53.274Z,954.05
2017-08-18T10:50:53.277Z,954.02
2017-08-18T10:51:53.281Z,954.01
2017-08-18T10:52:53.288Z,953.98
2017-08-18T10:53:53.288Z,953.96
2017-08-18T10:54:53.290Z,953.96
2017-08-18T10:55:53.308Z,953.96
2017-08-18T10:56:53.296Z,954.03
2017-08-18T10:57:53.317Z,953.93
2017-08-18T10:58:53.301Z,953.92
2017-08-18T10:59:53.313Z,953.97
2017-08-18T11:00:53.332Z,953.96
2017-08-18T11:01:53.333Z,953.88
2017-08-18T11:02:53.315Z,953.91
2017-08-18T11:03:53.319Z,953.95
2017-08-18T11:04:53.321Z,953.96
2017-08-18T11:05:53.324Z,953.9
2017-08-18T11:06:53.352Z,953.87
2017-08-18T11:07:53.333Z,953.85
2017-08-18T11:08:53.334Z,953.85
2017-08-18T11:09:53.338Z,953.86
2017-08-18T11:10:53.341Z,953.93
2017-08-18T11:11:53.345Z,953.92
2017-08-18T11:12:53.346Z,954.01
2017-08-18T11:13:53.350Z,953.99
2017-08-18T11:14:53.354Z,953.96
2017-08-18T11:15:53.377Z,953.91
2017-08-18T11:16:53.360Z,953.9
2017-08-18T11:17:53.362Z,953.89
2017-08-18T11:18:53.367Z,953.89
2017-08-18T11:19:53.384Z,953.87
2017-08-18T11:20:53.373Z,953.87
2017-08-18T11:21:53.377Z,953.89
2017-08-18T11:22:53.380Z,953.87
2017-08-18T11:23:53.384Z,953.86
2017-08-18T11:24:53.410Z,953.86
2017-08-18T11:25:53.390Z,953.92
2017-08-18T11:26:53.397Z,953.91
2017-08-18T11:27:53.397Z,953.9
2017-08-18T11:28:53.402Z,953.86
2017-08-18T11:29:53.405Z,953.86
2017-08-18T11:30:53.410Z,953.86
2017-08-18T11:31:53.413Z,953.83
2017-08-18T11:32:53.417Z,953.86
2017-08-18T11:33:53.421Z,953.83
2017-08-18T11:34:53.424Z,953.75
2017-08-18T11:35:53.428Z,953.75
2017-08-18T11:36:53.436Z,953.72
2017-08-18T11:37:53.436Z,953.66
2017-08-18T11:38:53.442Z,953.66
2017-08-18T11:39:53.445Z,953.65
2017-08-18T11:40:53.448Z,953.58
2017-08-18T11:41:53.452Z,953.56
2017-08-18T11:42:53.456Z,953.52
2017-08-18T11:43:53.461Z,953.52
2017-08-18T11:44:53.465Z,953.48
2017-08-18T11:45:53.470Z,953.51
2017-08-18T11:46:53.474Z,953.5
2017-08-18T11:47:53.477Z,953.55
2017-08-18T11:48:53.481Z,953.56
2017-08-18T11:49:53.485Z,953.54
2017-08-18T11:50:53.488Z,953.53
2017-08-18T11:51:53.493Z,953.54
2017-08-18T11:52:53.497Z,953.51
2017-08-18T11:53:53.501Z,953.52
2017-08-18T11:54:53.520Z,953.48
2017-08-18T11:55:53.511Z,953.5
2017-08-18T11:56:53.515Z,953.46
2017-08-18T11:57:53.519Z,953.48
2017-08-18T11:58:53.527Z,953.52
2017-08-18T11:59:53.528Z,953.46
2017-08-18T12:00:53.531Z,953.52
2017-08-18T12:01:53.535Z,953.48
2017-08-18T12:02:53.540Z,953.41
2017-08-18T12:03:53.547Z,953.33
2017-08-18T12:04:53.549Z,953.39
2017-08-18T12:05:53.556Z,953.29
2017-08-18T12:06:53.569Z,953.29
2017-08-18T12:07:53.565Z,953.24
2017-08-18T12:08:53.569Z,953.24
2017-08-18T12:09:53.582Z,953.26
2017-08-18T12:10:53.580Z,953.18
2017-08-18T12:11:53.584Z,953.25
2017-08-18T12:12:53.590Z,953.19
2017-08-18T12:13:53.595Z,953.17
2017-08-18T12:14:53.611Z,953.17
2017-08-18T12:15:53.604Z,953.17
2017-08-18T12:16:53.616Z,953.19
2017-08-18T12:17:53.616Z,953.13
2017-08-18T12:18:53.620Z,953.12
2017-08-18T12:19:53.626Z,953.16
2017-08-18T12:20:53.632Z,953.17
2017-08-18T12:21:53.637Z,953.14
2017-08-18T12:22:53.640Z,953.14
2017-08-18T12:23:53.647Z,953.12
2017-08-18T12:24:53.653Z,953.13
2017-08-18T12:25:53.679Z,953.1
2017-08-18T12:26:53.661Z,953.06
2017-08-18T12:27:53.689Z,953.08
2017-08-18T12:28:53.674Z,953.06
2017-08-18T12:29:53.679Z,953.04
2017-08-18T12:30:53.683Z,953.05
2017-08-18T12:31:53.690Z,953.14